x

San Francisco - 18nm West Of San Francisco, Ca (46026) Wave Buoy

9:50pm - Thu 30th Jul 2015 All times are PDT. -7 hours from GMT.

  • Sig Wave height 3.3ft
  • Swell Direction
  • Peak Period 15s
  • Average Period 9s
  • Wind
    9mph, 11mph gusts
  • Sea Temp 60°f
  • Air Temp 60°f
  • Sea Pressure 1017.4mb
  • San Francisco - 18nm West Of San Francisco, Ca
  • San Francisco - 18nm West Of San Francisco, Ca

More Historic Weather Station data

Upgrade to MSW Pro to gain access to the past 30 days of data for over 8000 Wavebouys and Weather Stations around the globe.

Join Pro

Comparision Forecast

View Surf forecast
   
Thu 07/30 9:50pm 3.5ft 15s 9s 9 11 mph 1017.4mb 60f 60f
8:50pm 3.5ft 15s 10s 9 11 mph 1016.8mb 58f 60f
7:50pm 3ft 15s 8s 9 11 mph 1016.7mb 59f 61f
6:50pm 3.5ft 15s 9s 9 11 mph 1016.5mb 59f 61f
5:50pm 3.5ft 15s 9s 9 11 mph 1016.8mb 60f 61f
4:50pm 3.5ft 15s 9s 9
mph
1016.9mb 60f 62f
10:50am 3.5ft 15s 8s 2
mph
1018.4mb 58f 60f
9:50am 3.5ft 15s  -  2 4 mph 1018.2mb 58f 60f
8:50am 3.5ft 15s 8s 4
mph
1017.8mb 58f 59f
7:50am 3.5ft 15s 9s 4
mph
1017.5mb 58f 59f
6:50am 3.5ft 15s 8s 4 7 mph 1016.8mb 58f 59f
5:50am 3.5ft 16s 8s 7
mph
1016.4mb 58f 59f
4:50am 3.5ft 15s 8s 4
mph
1015.8mb 58f 59f
3:50am 3.5ft 16s 8s 4
mph
1015.8mb 58f 59f
2:50am 3.5ft 15s 8s 4 7 mph 1015.8mb 57f 59f
1:50am 3.5ft 15s 8s 7 9 mph 1015.6mb 57f 59f
12:50am 4.5ft 15s 9s 7 9 mph 1015.7mb 58f 59f
Wed 07/29 11:50pm 4ft 15s 8s 7 9 mph 1015.5mb 58f 59f
10:50pm 4ft 15s 8s 4 7 mph 1015.3mb 58f 59f
9:50pm 4ft 16s 8s 7
mph
1014.8mb 58f 59f
8:50pm 4ft 16s 8s 4 9 mph 1014.4mb 58f 60f
7:50pm 3.5ft 15s 7s 7 9 mph 1014.3mb 58f 60f
6:50pm 4ft 16s 8s 7
mph
1014.3mb 58f 59f
5:50pm 4ft 15s 7s 9 11 mph 1014.2mb 59f 59f
4:50pm 4.5ft 16s 8s 7 11 mph 1014.3mb 59f 60f
3:50pm 4.5ft 16s 7s 7 9 mph 1014.4mb 59f 60f
2:50pm 4ft 9s 6s 9 11 mph 1014.6mb 59f 60f
1:50pm 4.5ft 16s 7s 7 9 mph 1014.6mb 59f 59f
12:50pm 4.5ft 16s 7s 9 11 mph 1014.6mb 59f 59f
11:50am 5ft 16s 7s 11
mph
1014.6mb 58f 58f
10:50am 4.5ft 16s 7s 11 16 mph 1014.6mb 58f 58f
9:50am 4.5ft 16s 8s 13 18 mph 1014mb 59f 58f
8:50am 4ft 16s 7s 11 13 mph 1013.9mb 59f 58f
7:50am 4.5ft 16s 7s 7 11 mph 1013.5mb 59f 57f
6:50am 4ft 16s 7s 7 9 mph 1012.9mb 59f 58f
5:50am 3.5ft 16s 7s 9 11 mph 1012.6mb 60f 58f
4:50am 4ft 17s 8s 9 13 mph 1012.4mb 60f 59f
3:50am 4.5ft 16s 8s 7 9 mph 1012mb 60f 60f
2:50am 4.5ft 16s 8s 4 7 mph 1011.8mb 60f 60f
1:50am 4.5ft 16s 7s 2 4 mph 1012.3mb 60f 60f
12:50am 4.5ft 16s 8s 2 4 mph 1012.4mb 60f 60f
Tue 07/28 11:50pm 4.5ft 16s 7s 4
mph
1012.3mb 60f 60f
10:50pm 4.5ft 16s 8s 4 7 mph 1012.5mb 61f 60f
9:50pm 4ft 17s 7s 2 4 mph 1012.1mb 61f 60f
8:50pm 4.5ft 9s 7s 4
mph
1011.6mb 61f 61f
7:50pm 4.5ft 9s 7s 4 7 mph 1011.6mb 62f 61f
6:50pm 4.5ft 17s 7s 2 4 mph 1011.7mb 62f 63f
5:50pm 4.5ft 17s 7s 4
mph
1011.7mb 62f 62f
4:50pm 5ft 17s 7s 4 7 mph 1012mb 62f 62f
3:50pm 4.5ft 9s 7s 4 7 mph 1012.2mb 62f 61f
2:50pm 5.5ft 17s 7s 4
mph
1012.7mb 61f 61f
1:50pm 5ft 9s 7s 4
mph
1013mb 60f 61f
12:50pm 4.5ft 10s 7s 2
mph
1013.2mb 60f 60f
11:50am 6ft 17s 8s  -  2 mph 1013.1mb 58f 59f
10:50am 4.5ft 8s 7s 2
mph
1013.1mb 57f 58f
9:50am 5ft 10s 7s 2
mph
1013.1mb 56f 57f
8:50am 5ft 17s 7s 4
mph
1012.9mb 56f 57f
7:50am 5ft 17s 7s 4
mph
1012.5mb 55f 56f
6:50am 5ft 17s 7s 2 4 mph 1012.2mb 55f 56f
5:50am 5ft 9s 7s 2 4 mph 1012.1mb 55f 55f
4:50am 5ft 17s 7s 2
mph
1011.9mb 55f 55f
3:50am 5.5ft 8s 7s 2 4 mph 1012mb 55f 55f
2:50am 6ft 8s 7s 4 7 mph 1012.2mb 55f 56f
1:50am 6ft 9s 7s 7 9 mph 1012.4mb 55f 56f
12:50am 7ft 8s 7s 9 11 mph 1012.9mb 55f 56f
Mon 07/27 11:50pm 6ft 8s 6s 9 11 mph 1013.1mb 55f 57f
10:50pm 5ft 8s 6s 7 11 mph 1013.4mb 56f 57f
9:50pm 4.5ft 8s 6s 11 13 mph 1013.1mb 56f 58f
8:50pm 4.5ft 7s 6s 13 16 mph 1012.9mb 56f 58f
7:50pm 5ft 7s 6s 16 18 mph 1013.1mb 56f 58f
6:50pm 4.5ft 7s 5s 18 20 mph 1013.3mb 56f 59f
5:50pm 4.5ft 7s 5s 20 22 mph 1013.5mb 56f 58f
4:50pm 4.5ft 7s 5s 16 20 mph 1014.1mb 56f 58f
3:50pm 4.5ft 17s 6s 13 18 mph 1014.8mb 56f 58f
2:50pm 5ft 8s 6s 11 13 mph 1015.3mb 56f 57f
1:50pm 4.5ft 8s 6s 11 13 mph 1015.5mb 56f 57f
12:50pm 5ft 7s 6s 11 13 mph 1015.7mb 56f 57f
11:50am 5ft 8s 6s 9 11 mph 1015.9mb 56f 57f
10:50am 5ft 7s 6s 7 9 mph 1015.7mb 55f 56f
9:50am 5.5ft 7s 6s 9 11 mph 1015.4mb 55f 56f
8:50am 5ft 7s 6s 9 11 mph 1014.9mb 55f 56f
7:50am 5ft 8s 6s 9 11 mph 1014.7mb 55f 56f
6:50am 5.5ft 8s 6s 13 16 mph 1014mb 55f 56f